map of RJTF home
RJTF - Airport
Location
City:  Chofu, Tokyo, Japan
ICAO:RJTF

Details
Type:Airport (Aerodrome, Airfield)
Use:Public/Civil
Latitude:35°40'18"N (35.671667)
Longitude:139°31'41"E (139.528056)
Elevation:139 ft (42 m)
Variation:7.61°W (WMM2015v2 magnetic declination)
-0.06° annual change
Runways:1
Longest:2625 × 98 ft (800 × 30 m), paved

Time
Time Zone:UTC+9
Local Time:

Weather
METAR:RJTF 040700Z 36015G25KT 330V040 9999 FEW030 16/M03 Q1009

Related Locations
Nearby:
Farthest:SNPV: 11763 mi / 18931 km
Mostardas [Solidão], RS, BR

Find:

   beyond  
but within

Other Information
Maps:
NOTAMs:
Links:
Sources:

  
  • flag of Japan
  • flag of Tokyo
  

Sectional Chart

Flight Planning
at skyvector.com

Satellite Image

Google Maps Satellite view

 

Copyright © 2004-2019 Karl L. Swartz. All rights reserved.
The Great Circle Mapper name and logo are trademarks of the Great Circle Mapper.
All other trademarks mentioned herein belong to their respective owners.
Please see credits for attibutions and further copyright information.

  Follow gcmap on Facebook Follow gcmap on Twitter GCmap on LinkedIn

hCard Microformat

Geo Microformat